メインページ
METAR-TAF:

METAR-TAF

空港 :

Fort Chipewyan, アルバータ州, カナダ

緯度: 58-46N, 経度: 111-07W, 海抜: 232m

現時点の気象観測

当レポートは56分前の18:00(UTC)に作成
南/南西の風 11kt、最大17ktの突風を伴う、南/南東から西/南西の間で変化する
気温 28°C
湿度 35%
気圧 1004 hPa
視程: 14.5km
晴天

METAR: CYPY 181800Z AUTO 21011G17KT 150V250 9SM CLR 28/11 A2966 RMK SLP047 DENSITY ALT 2600FT

時間: 12:56 (18:56 UTC)

予報

当レポートは1時間18分前の17:38(UTC)に作成
予報は18日の 18時(UTC)から 19日の 06時(UTC)まで有効
の風 8kt
視程: 10km
高度8000ftの雲はほとんどない
18日の 2200時(UTC)から
南/南西の風 10kt
視程: 10km
高度6000ftの雲は散在している
高度8000ftの千切れ雲あり
18日の 22時(UTC)から 19日の 03時(UTC)まで一時的に
視程: 10km
高度6000ftの千切れ雲あり
弱いにわか雨
確率 30%
18日の 22時(UTC)から 19日の 03時(UTC)まで
変向風 20kt、最大30ktの突風を伴う
視程: 6.4km
高度6000ftの千切れ雲あり, 積乱雲.
激しい雷雨, 雨
19日の 0300時(UTC)から
南西の風 7kt
視程: 10km
高度7000ftの雲は散在している
高度10000ftの千切れ雲あり

TAF: CYPY 181738Z 1818/1906 19008KT P6SM FEW080 FM182200 20010KT P6SM SCT060 BKN080 TEMPO 1822/1903 P6SM -SHRA BKN060 PROB30 1822/1903 VRB20G30KT 4SM TSRA BKN060CB FM190300 22007KT P6SM SCT070 BKN100 RMK FCST BASED ON AUTO OBS. NXT FCST BY 190000Z

4,000以上の空港の気象観測と天気予報(METAR報とTAF報)

利用可能な観測所は地図上に黄色い丸と赤い丸で示す。

丸の上にカーソルを重ねると観測所名を参照できる。

次にクリックすると気象観測と天気予報を参照できる。

マップの切り替え:黒色「×」印の緑ボタンをクリックして拡大、「-」印の緑ボタンをクリックして縮小、緑色の三角印をクリックして隣りの地図に切り替え


METAR-TAF: